sensor_id;sensor_type;location;lat;lon;timestamp;pressure;altitude;pressure_sealevel;temperature;humidity
80648;BME280;70012;0.000;0.000;2023-07-08T00:01:19;100732.47;;;18.62;51.37
80648;BME280;70012;0.000;0.000;2023-07-08T00:03:47;100725.81;;;18.63;51.67
80648;BME280;70012;0.000;0.000;2023-07-08T00:06:20;100712.19;;;18.66;51.65
80648;BME280;70012;0.000;0.000;2023-07-08T00:08:47;100710.41;;;18.51;51.74
80648;BME280;70012;0.000;0.000;2023-07-08T00:11:15;100712.06;;;18.52;52.06
80648;BME280;70012;0.000;0.000;2023-07-08T00:13:43;100709.84;;;18.54;51.97
80648;BME280;70012;0.000;0.000;2023-07-08T00:16:15;100719.28;;;18.53;51.58
80648;BME280;70012;0.000;0.000;2023-07-08T00:18:44;100697.75;;;18.45;51.35
80648;BME280;70012;0.000;0.000;2023-07-08T00:21:13;100724.81;;;18.53;51.41
80648;BME280;70012;0.000;0.000;2023-07-08T00:23:49;100699.47;;;18.41;51.76
80648;BME280;70012;0.000;0.000;2023-07-08T00:26:25;100708.19;;;18.53;51.49
80648;BME280;70012;0.000;0.000;2023-07-08T00:28:52;100712.91;;;18.53;51.43
80648;BME280;70012;0.000;0.000;2023-07-08T00:31:20;100707.13;;;18.49;51.75
80648;BME280;70012;0.000;0.000;2023-07-08T00:33:51;100695.59;;;18.42;51.60
80648;BME280;70012;0.000;0.000;2023-07-08T00:36:19;100701.13;;;18.42;51.73
80648;BME280;70012;0.000;0.000;2023-07-08T00:38:46;100702.78;;;18.43;51.95
80648;BME280;70012;0.000;0.000;2023-07-08T00:41:20;100695.59;;;18.42;52.11
80648;BME280;70012;0.000;0.000;2023-07-08T00:43:50;100699.47;;;18.41;51.58
80648;BME280;70012;0.000;0.000;2023-07-08T00:49:00;100668.53;;;18.34;51.76
80648;BME280;70012;0.000;0.000;2023-07-08T00:51:29;100685.63;;;18.41;52.13
80648;BME280;70012;0.000;0.000;2023-07-08T00:53:56;100688.41;;;18.41;51.95
80648;BME280;70012;0.000;0.000;2023-07-08T00:56:30;100700.28;;;18.42;52.38
80648;BME280;70012;0.000;0.000;2023-07-08T00:59:00;100706.69;;;18.42;52.42
80648;BME280;70012;0.000;0.000;2023-07-08T01:01:30;100685.81;;;18.26;53.17
80648;BME280;70012;0.000;0.000;2023-07-08T01:04:06;100683.88;;;18.26;53.31
80648;BME280;70012;0.000;0.000;2023-07-08T01:06:38;100693.00;;;18.27;53.22
80648;BME280;70012;0.000;0.000;2023-07-08T01:09:09;100691.06;;;18.27;53.53
80648;BME280;70012;0.000;0.000;2023-07-08T01:11:40;100692.19;;;18.26;53.30
80648;BME280;70012;0.000;0.000;2023-07-08T01:14:09;100687.00;;;18.19;53.77
80648;BME280;70012;0.000;0.000;2023-07-08T01:16:37;100683.69;;;18.17;53.58
80648;BME280;70012;0.000;0.000;2023-07-08T01:19:06;100694.78;;;18.17;53.88
80648;BME280;70012;0.000;0.000;2023-07-08T01:21:46;100685.72;;;18.12;54.21
80648;BME280;70012;0.000;0.000;2023-07-08T01:24:14;100688.19;;;18.13;54.14
80648;BME280;70012;0.000;0.000;2023-07-08T01:26:42;100686.91;;;18.05;54.52
80648;BME280;70012;0.000;0.000;2023-07-08T01:29:12;100688.28;;;18.08;55.06
80648;BME280;70012;0.000;0.000;2023-07-08T01:31:39;100694.38;;;18.05;55.31
80648;BME280;70012;0.000;0.000;2023-07-08T01:34:08;100689.22;;;17.98;55.89
80648;BME280;70012;0.000;0.000;2023-07-08T01:36:40;100680.75;;;17.84;55.83
80648;BME280;70012;0.000;0.000;2023-07-08T01:39:14;100686.28;;;17.84;55.85
80648;BME280;70012;0.000;0.000;2023-07-08T01:41:42;100686.41;;;17.74;56.13
80648;BME280;70012;0.000;0.000;2023-07-08T01:46:50;100698.16;;;17.60;55.55
80648;BME280;70012;0.000;0.000;2023-07-08T01:49:20;100694.63;;;17.55;55.99
80648;BME280;70012;0.000;0.000;2023-07-08T01:51:48;100685.56;;;17.49;56.22
80648;BME280;70012;0.000;0.000;2023-07-08T01:54:15;100699.41;;;17.49;56.49
80648;BME280;70012;0.000;0.000;2023-07-08T01:56:42;100689.53;;;17.38;56.59
80648;BME280;70012;0.000;0.000;2023-07-08T01:59:08;100679.06;;;17.35;56.82
80648;BME280;70012;0.000;0.000;2023-07-08T02:01:35;100680.72;;;17.31;57.28
80648;BME280;70012;0.000;0.000;2023-07-08T02:04:03;100670.25;;;17.27;57.43
80648;BME280;70012;0.000;0.000;2023-07-08T02:06:30;100645.53;;;17.07;57.61
80648;BME280;70012;0.000;0.000;2023-07-08T02:08:57;100659.31;;;17.12;57.25
80648;BME280;70012;0.000;0.000;2023-07-08T02:11:26;100632.34;;;16.99;57.49
80648;BME280;70012;0.000;0.000;2023-07-08T02:13:53;100655.50;;;17.03;57.58
80648;BME280;70012;0.000;0.000;2023-07-08T02:16:20;100640.69;;;16.93;57.72
80648;BME280;70012;0.000;0.000;2023-07-08T02:18:47;100647.88;;;16.94;58.15
80648;BME280;70012;0.000;0.000;2023-07-08T02:21:14;100650.63;;;16.89;58.26
80648;BME280;70012;0.000;0.000;2023-07-08T02:23:49;100640.16;;;16.86;58.64
80648;BME280;70012;0.000;0.000;2023-07-08T02:26:17;100660.56;;;16.95;58.84
80648;BME280;70012;0.000;0.000;2023-07-08T02:28:45;100648.75;;;16.85;58.62
80648;BME280;70012;0.000;0.000;2023-07-08T02:31:12;100646.84;;;16.80;58.64
80648;BME280;70012;0.000;0.000;2023-07-08T02:33:39;100644.97;;;16.70;58.83
80648;BME280;70012;0.000;0.000;2023-07-08T02:36:06;100639.47;;;16.65;58.96
80648;BME280;70012;0.000;0.000;2023-07-08T02:38:33;100643.06;;;16.65;59.16
80648;BME280;70012;0.000;0.000;2023-07-08T02:41:00;100633.75;;;16.51;59.32
80648;BME280;70012;0.000;0.000;2023-07-08T02:43:27;100632.69;;;16.47;59.30
80648;BME280;70012;0.000;0.000;2023-07-08T02:45:54;100644.25;;;16.54;59.64
80648;BME280;70012;0.000;0.000;2023-07-08T02:48:21;100644.25;;;16.54;58.98
80648;BME280;70012;0.000;0.000;2023-07-08T02:50:48;100654.16;;;16.60;59.39
80648;BME280;70012;0.000;0.000;2023-07-08T02:53:14;100643.16;;;16.50;59.42
80648;BME280;70012;0.000;0.000;2023-07-08T02:55:41;100642.59;;;16.53;59.18
80648;BME280;70012;0.000;0.000;2023-07-08T02:58:09;100658.59;;;16.56;59.79
80648;BME280;70012;0.000;0.000;2023-07-08T03:00:36;100648.72;;;16.45;60.01
80648;BME280;70012;0.000;0.000;2023-07-08T03:03:04;100647.63;;;16.46;59.65
80648;BME280;70012;0.000;0.000;2023-07-08T03:05:31;100647.66;;;16.41;60.06
80648;BME280;70012;0.000;0.000;2023-07-08T03:07:58;100652.88;;;16.42;60.34
80648;BME280;70012;0.000;0.000;2023-07-08T03:10:26;100647.34;;;16.42;60.38
80648;BME280;70012;0.000;0.000;2023-07-08T03:12:53;100658.09;;;16.49;60.44
80648;BME280;70012;0.000;0.000;2023-07-08T03:15:20;100643.19;;;16.45;60.29
80648;BME280;70012;0.000;0.000;2023-07-08T03:17:46;100650.34;;;16.51;60.63
80648;BME280;70012;0.000;0.000;2023-07-08T03:20:15;100654.75;;;16.52;60.88
80648;BME280;70012;0.000;0.000;2023-07-08T03:22:41;100654.16;;;16.60;60.44
80648;BME280;70012;0.000;0.000;2023-07-08T03:25:08;100648.03;;;16.63;59.60
80648;BME280;70012;0.000;0.000;2023-07-08T03:27:36;100636.44;;;16.67;58.90
80648;BME280;70012;0.000;0.000;2023-07-08T03:30:05;100638.34;;;16.71;58.83
80648;BME280;70012;0.000;0.000;2023-07-08T03:32:33;100646.63;;;16.71;59.96
80648;BME280;70012;0.000;0.000;2023-07-08T03:35:00;100646.31;;;16.73;60.52
80648;BME280;70012;0.000;0.000;2023-07-08T03:37:28;100662.31;;;16.76;60.16
80648;BME280;70012;0.000;0.000;2023-07-08T03:39:55;100668.94;;;16.80;60.49
80648;BME280;70012;0.000;0.000;2023-07-08T03:42:21;100683.31;;;16.82;61.03
80648;BME280;70012;0.000;0.000;2023-07-08T03:44:48;100677.25;;;16.80;60.98
80648;BME280;70012;0.000;0.000;2023-07-08T03:47:15;100679.16;;;16.79;60.62
80648;BME280;70012;0.000;0.000;2023-07-08T03:49:42;100673.44;;;16.71;60.33
80648;BME280;70012;0.000;0.000;2023-07-08T03:52:13;100696.00;;;16.83;60.61
80648;BME280;70012;0.000;0.000;2023-07-08T03:54:41;100678.41;;;16.74;60.83
80648;BME280;70012;0.000;0.000;2023-07-08T03:57:08;100675.63;;;16.74;61.08
80648;BME280;70012;0.000;0.000;2023-07-08T03:59:35;100677.28;;;16.75;61.37
80648;BME280;70012;0.000;0.000;2023-07-08T04:02:02;100664.56;;;16.74;61.35
80648;BME280;70012;0.000;0.000;2023-07-08T04:04:30;100671.72;;;16.80;61.55
80648;BME280;70012;0.000;0.000;2023-07-08T04:06:57;100698.75;;;16.93;61.82
80648;BME280;70012;0.000;0.000;2023-07-08T04:09:24;100695.97;;;16.93;61.86
80648;BME280;70012;0.000;0.000;2023-07-08T04:11:51;100681.56;;;16.91;62.02
80648;BME280;70012;0.000;0.000;2023-07-08T04:14:18;100683.25;;;16.92;62.36
80648;BME280;70012;0.000;0.000;2023-07-08T04:16:50;100684.31;;;16.96;62.48
80648;BME280;70012;0.000;0.000;2023-07-08T04:19:18;100682.69;;;16.95;63.09
80648;BME280;70012;0.000;0.000;2023-07-08T04:21:46;100677.13;;;17.01;63.15
80648;BME280;70012;0.000;0.000;2023-07-08T04:24:14;100703.00;;;17.15;61.86
80648;BME280;70012;0.000;0.000;2023-07-08T04:26:42;100693.56;;;17.16;61.66
80648;BME280;70012;0.000;0.000;2023-07-08T04:29:15;100686.38;;;17.20;62.62
80648;BME280;70012;0.000;0.000;2023-07-08T04:31:43;100676.97;;;17.21;62.47
80648;BME280;70012;0.000;0.000;2023-07-08T04:34:10;100686.88;;;17.27;64.05
80648;BME280;70012;0.000;0.000;2023-07-08T04:36:38;100689.56;;;17.33;64.53
80648;BME280;70012;0.000;0.000;2023-07-08T04:39:06;100692.59;;;17.36;64.66
80648;BME280;70012;0.000;0.000;2023-07-08T04:41:36;100688.09;;;17.40;64.81
80648;BME280;70012;0.000;0.000;2023-07-08T04:44:08;100688.09;;;17.46;65.21
80648;BME280;70012;0.000;0.000;2023-07-08T04:46:37;100691.09;;;17.49;65.05
80648;BME280;70012;0.000;0.000;2023-07-08T04:49:07;100708.16;;;17.56;64.28
80648;BME280;70012;0.000;0.000;2023-07-08T04:51:36;100700.94;;;17.60;64.18
80648;BME280;70012;0.000;0.000;2023-07-08T04:54:03;100692.28;;;17.67;64.15
80648;BME280;70012;0.000;0.000;2023-07-08T04:59:07;100700.09;;;17.89;64.26
80648;BME280;70012;0.000;0.000;2023-07-08T05:01:35;100697.78;;;17.97;64.30
80648;BME280;70012;0.000;0.000;2023-07-08T05:04:03;100691.63;;;18.05;63.47
80648;BME280;70012;0.000;0.000;2023-07-08T05:06:32;100696.66;;;18.22;62.50
80648;BME280;70012;0.000;0.000;2023-07-08T05:09:00;100691.69;;;18.43;61.59
80648;BME280;70012;0.000;0.000;2023-07-08T05:11:28;100697.09;;;18.53;61.22
80648;BME280;70012;0.000;0.000;2023-07-08T05:13:55;100691.47;;;18.59;59.87
80648;BME280;70012;0.000;0.000;2023-07-08T05:16:22;100692.28;;;18.78;59.84
80648;BME280;70012;0.000;0.000;2023-07-08T05:18:49;100694.69;;;18.85;59.47
80648;BME280;70012;0.000;0.000;2023-07-08T05:21:18;100708.22;;;18.92;60.21
80648;BME280;70012;0.000;0.000;2023-07-08T05:23:48;100695.91;;;18.98;59.74
80648;BME280;70012;0.000;0.000;2023-07-08T05:26:18;100701.66;;;19.01;58.73
80648;BME280;70012;0.000;0.000;2023-07-08T05:28:46;100692.44;;;19.06;58.20
80648;BME280;70012;0.000;0.000;2023-07-08T05:31:13;100693.31;;;19.20;58.58
80648;BME280;70012;0.000;0.000;2023-07-08T05:33:39;100702.22;;;19.36;58.62
80648;BME280;70012;0.000;0.000;2023-07-08T05:36:06;100715.41;;;19.59;57.95
80648;BME280;70012;0.000;0.000;2023-07-08T05:38:33;100695.06;;;19.63;57.23
80648;BME280;70012;0.000;0.000;2023-07-08T05:41:00;100707.41;;;19.71;56.71
80648;BME280;70012;0.000;0.000;2023-07-08T05:43:27;100702.91;;;19.75;56.77
80648;BME280;70012;0.000;0.000;2023-07-08T05:45:58;100695.59;;;19.79;56.97
80648;BME280;70012;0.000;0.000;2023-07-08T05:48:37;100702.28;;;19.78;57.39
80648;BME280;70012;0.000;0.000;2023-07-08T05:51:04;100696.72;;;19.78;58.13
80648;BME280;70012;0.000;0.000;2023-07-08T05:53:31;100693.25;;;19.73;56.98
80648;BME280;70012;0.000;0.000;2023-07-08T05:55:59;100694.69;;;19.70;57.29
80648;BME280;70012;0.000;0.000;2023-07-08T05:58:26;100690.31;;;19.64;57.98
80648;BME280;70012;0.000;0.000;2023-07-08T06:00:56;100692.19;;;19.55;58.04
80648;BME280;70012;0.000;0.000;2023-07-08T06:03:24;100681.66;;;19.51;58.37
80648;BME280;70012;0.000;0.000;2023-07-08T06:05:52;100692.88;;;19.46;59.13
80648;BME280;70012;0.000;0.000;2023-07-08T06:08:19;100692.19;;;19.55;59.01
80648;BME280;70012;0.000;0.000;2023-07-08T06:10:46;100689.72;;;19.81;56.99
80648;BME280;70012;0.000;0.000;2023-07-08T06:13:13;100703.13;;;20.35;56.15
80648;BME280;70012;0.000;0.000;2023-07-08T06:15:41;100696.66;;;21.13;53.60
80648;BME280;70012;0.000;0.000;2023-07-08T06:18:09;100709.31;;;21.64;52.11
80648;BME280;70012;0.000;0.000;2023-07-08T06:20:36;100692.72;;;21.99;50.45
80648;BME280;70012;0.000;0.000;2023-07-08T06:23:02;100690.81;;;22.26;50.16
80648;BME280;70012;0.000;0.000;2023-07-08T06:25:30;100704.78;;;22.35;50.26
80648;BME280;70012;0.000;0.000;2023-07-08T06:27:57;100689.44;;;23.08;47.21
80648;BME280;70012;0.000;0.000;2023-07-08T06:30:23;100700.09;;;23.32;47.67
80648;BME280;70012;0.000;0.000;2023-07-08T06:32:50;100703.63;;;23.67;45.97
80648;BME280;70012;0.000;0.000;2023-07-08T06:35:18;100692.03;;;23.95;45.44
80648;BME280;70012;0.000;0.000;2023-07-08T06:37:44;100691.22;;;23.86;44.96
80648;BME280;70012;0.000;0.000;2023-07-08T06:40:12;100693.69;;;23.96;45.90
80648;BME280;70012;0.000;0.000;2023-07-08T06:42:39;100697.34;;;24.69;43.41
80648;BME280;70012;0.000;0.000;2023-07-08T06:45:06;100693.66;;;24.56;44.26
80648;BME280;70012;0.000;0.000;2023-07-08T06:47:33;100702.81;;;25.08;42.56
80648;BME280;70012;0.000;0.000;2023-07-08T06:50:00;100716.47;;;24.88;42.61
80648;BME280;70012;0.000;0.000;2023-07-08T06:52:26;100712.69;;;24.72;43.42
80648;BME280;70012;0.000;0.000;2023-07-08T06:54:53;100714.53;;;24.59;41.36
80648;BME280;70012;0.000;0.000;2023-07-08T06:57:20;100710.66;;;24.51;41.43
80648;BME280;70012;0.000;0.000;2023-07-08T06:59:47;100720.13;;;24.38;44.54
80648;BME280;70012;0.000;0.000;2023-07-08T07:02:17;100705.34;;;24.28;45.42
80648;BME280;70012;0.000;0.000;2023-07-08T07:04:44;100706.16;;;24.29;45.34
80648;BME280;70012;0.000;0.000;2023-07-08T07:07:11;100700.16;;;24.18;44.41
80648;BME280;70012;0.000;0.000;2023-07-08T07:09:38;100701.41;;;24.29;45.12
80648;BME280;70012;0.000;0.000;2023-07-08T07:12:06;100682.91;;;24.37;44.64
80648;BME280;70012;0.000;0.000;2023-07-08T07:14:33;100714.41;;;24.55;44.47
80648;BME280;70012;0.000;0.000;2023-07-08T07:17:03;100703.06;;;24.52;44.25
80648;BME280;70012;0.000;0.000;2023-07-08T07:19:34;100708.03;;;24.76;41.75
80648;BME280;70012;0.000;0.000;2023-07-08T07:22:01;100706.94;;;24.89;40.30
80648;BME280;70012;0.000;0.000;2023-07-08T07:24:28;100700.44;;;24.98;41.57
80648;BME280;70012;0.000;0.000;2023-07-08T07:26:55;100704.44;;;25.09;40.19
80648;BME280;70012;0.000;0.000;2023-07-08T07:29:23;100711.88;;;25.26;38.60
80648;BME280;70012;0.000;0.000;2023-07-08T07:31:50;100706.75;;;25.28;40.29
80648;BME280;70012;0.000;0.000;2023-07-08T07:34:18;100719.03;;;25.36;40.39
80648;BME280;70012;0.000;0.000;2023-07-08T07:36:45;100713.69;;;25.43;37.70
80648;BME280;70012;0.000;0.000;2023-07-08T07:39:12;100721.22;;;25.51;38.30
80648;BME280;70012;0.000;0.000;2023-07-08T07:41:38;100723.53;;;25.49;34.90
80648;BME280;70012;0.000;0.000;2023-07-08T07:44:05;100719.56;;;25.50;35.42
80648;BME280;70012;0.000;0.000;2023-07-08T07:46:32;100713.72;;;25.55;37.89
80648;BME280;70012;0.000;0.000;2023-07-08T07:48:59;100728.75;;;25.84;35.80
80648;BME280;70012;0.000;0.000;2023-07-08T07:51:25;100722.41;;;25.87;32.83
80648;BME280;70012;0.000;0.000;2023-07-08T07:53:52;100711.91;;;25.84;33.78
80648;BME280;70012;0.000;0.000;2023-07-08T07:56:19;100720.09;;;25.89;34.94
80648;BME280;70012;0.000;0.000;2023-07-08T07:58:46;100717.53;;;25.97;33.58
80648;BME280;70012;0.000;0.000;2023-07-08T08:01:13;100715.41;;;25.94;33.10
80648;BME280;70012;0.000;0.000;2023-07-08T08:03:40;100708.16;;;25.93;33.44
80648;BME280;70012;0.000;0.000;2023-07-08T08:06:07;100710.03;;;26.01;33.68
80648;BME280;70012;0.000;0.000;2023-07-08T08:08:33;100716.88;;;26.12;33.96
80648;BME280;70012;0.000;0.000;2023-07-08T08:11:03;100706.56;;;26.16;33.48
80648;BME280;70012;0.000;0.000;2023-07-08T08:13:30;100710.53;;;26.40;35.82
80648;BME280;70012;0.000;0.000;2023-07-08T08:15:57;100716.34;;;26.47;35.51
80648;BME280;70012;0.000;0.000;2023-07-08T08:18:25;100713.09;;;26.58;32.75
80648;BME280;70012;0.000;0.000;2023-07-08T08:20:52;100713.75;;;26.67;36.83
80648;BME280;70012;0.000;0.000;2023-07-08T08:23:19;100714.22;;;26.81;35.38
80648;BME280;70012;0.000;0.000;2023-07-08T08:25:46;100711.88;;;26.83;32.39
80648;BME280;70012;0.000;0.000;2023-07-08T08:28:12;100705.53;;;26.87;33.39
80648;BME280;70012;0.000;0.000;2023-07-08T08:30:39;100717.41;;;27.08;33.64
80648;BME280;70012;0.000;0.000;2023-07-08T08:33:06;100703.09;;;27.13;32.45
80648;BME280;70012;0.000;0.000;2023-07-08T08:35:33;100710.56;;;27.22;34.87
80648;BME280;70012;0.000;0.000;2023-07-08T08:38:00;100714.03;;;27.31;30.87
80648;BME280;70012;0.000;0.000;2023-07-08T08:40:26;100713.06;;;27.39;31.58
80648;BME280;70012;0.000;0.000;2023-07-08T08:43:02;100722.63;;;27.51;30.59
80648;BME280;70012;0.000;0.000;2023-07-08T08:45:35;100717.91;;;27.55;30.24
80648;BME280;70012;0.000;0.000;2023-07-08T08:48:10;100718.75;;;27.71;30.78
80648;BME280;70012;0.000;0.000;2023-07-08T08:50:44;100720.28;;;27.85;30.03
80648;BME280;70012;0.000;0.000;2023-07-08T08:53:31;100722.25;;;28.00;33.02
80648;BME280;70012;0.000;0.000;2023-07-08T08:56:05;100715.13;;;28.03;30.46
80648;BME280;70012;0.000;0.000;2023-07-08T08:58:42;100721.47;;;28.16;29.85
80648;BME280;70012;0.000;0.000;2023-07-08T09:01:15;100707.56;;;28.23;29.97
80648;BME280;70012;0.000;0.000;2023-07-08T09:06:17;100716.91;;;28.43;30.13
80648;BME280;70012;0.000;0.000;2023-07-08T09:08:46;100718.75;;;28.55;29.53
80648;BME280;70012;0.000;0.000;2023-07-08T09:13:46;100711.94;;;28.72;29.43
80648;BME280;70012;0.000;0.000;2023-07-08T09:19:00;100710.81;;;28.96;29.14
80648;BME280;70012;0.000;0.000;2023-07-08T09:24:17;100701.63;;;29.19;29.20
80648;BME280;70012;0.000;0.000;2023-07-08T09:26:46;100701.41;;;29.28;28.85
80648;BME280;70012;0.000;0.000;2023-07-08T09:29:14;100700.66;;;29.50;28.76
80648;BME280;70012;0.000;0.000;2023-07-08T09:31:41;100699.44;;;29.75;30.04
80648;BME280;70012;0.000;0.000;2023-07-08T09:34:15;100705.00;;;29.91;29.97
80648;BME280;70012;0.000;0.000;2023-07-08T09:36:44;100702.66;;;29.96;27.78
80648;BME280;70012;0.000;0.000;2023-07-08T09:39:14;100699.22;;;30.07;28.72
80648;BME280;70012;0.000;0.000;2023-07-08T09:41:43;100686.06;;;30.18;27.76
80648;BME280;70012;0.000;0.000;2023-07-08T09:44:21;100690.84;;;30.41;28.11
80648;BME280;70012;0.000;0.000;2023-07-08T09:46:54;100687.03;;;30.56;27.99
80648;BME280;70012;0.000;0.000;2023-07-08T09:49:35;100688.44;;;30.70;27.38
80648;BME280;70012;0.000;0.000;2023-07-08T09:52:04;100690.69;;;30.87;28.22
80648;BME280;70012;0.000;0.000;2023-07-08T09:54:30;100688.31;;;30.93;27.25
80648;BME280;70012;0.000;0.000;2023-07-08T09:57:06;100686.06;;;31.06;27.44
80648;BME280;70012;0.000;0.000;2023-07-08T09:59:43;100678.59;;;31.24;27.99
80648;BME280;70012;0.000;0.000;2023-07-08T10:02:38;100685.69;;;31.45;28.20
80648;BME280;70012;0.000;0.000;2023-07-08T10:05:19;100679.31;;;31.55;25.48
80648;BME280;70012;0.000;0.000;2023-07-08T10:07:48;100684.28;;;31.66;25.34
80648;BME280;70012;0.000;0.000;2023-07-08T10:10:24;100677.13;;;31.79;25.29
80648;BME280;70012;0.000;0.000;2023-07-08T10:12:59;100678.34;;;31.78;24.72
80648;BME280;70012;0.000;0.000;2023-07-08T10:15:42;100682.06;;;31.93;25.31
80648;BME280;70012;0.000;0.000;2023-07-08T10:18:13;100677.13;;;31.79;24.72
80648;BME280;70012;0.000;0.000;2023-07-08T10:20:54;100682.09;;;31.97;24.92
80648;BME280;70012;0.000;0.000;2023-07-08T10:23:34;100678.97;;;32.09;24.68
80648;BME280;70012;0.000;0.000;2023-07-08T10:26:21;100675.91;;;32.32;24.77
80648;BME280;70012;0.000;0.000;2023-07-08T10:32:02;100669.59;;;32.61;27.04
80648;BME280;70012;0.000;0.000;2023-07-08T10:34:42;100669.63;;;32.75;24.95
80648;BME280;70012;0.000;0.000;2023-07-08T10:39:55;100671.03;;;33.25;25.17
80648;BME280;70012;0.000;0.000;2023-07-08T10:54:20;100666.66;;;33.78;24.80
80648;BME280;70012;0.000;0.000;2023-07-08T10:56:55;100669.09;;;34.15;24.87
80648;BME280;70012;0.000;0.000;2023-07-08T10:59:44;100667.84;;;34.38;22.84
80648;BME280;70012;0.000;0.000;2023-07-08T11:07:39;100667.22;;;34.98;23.53
80648;BME280;70012;0.000;0.000;2023-07-08T11:10:15;100671.28;;;35.00;23.12
80648;BME280;70012;0.000;0.000;2023-07-08T11:12:50;100665.19;;;34.98;22.20
80648;BME280;70012;0.000;0.000;2023-07-08T11:15:36;100658.72;;;34.87;21.48
80648;BME280;70012;0.000;0.000;2023-07-08T11:20:58;100671.31;;;34.82;22.22
80648;BME280;70012;0.000;0.000;2023-07-08T11:23:32;100660.72;;;34.86;22.83
80648;BME280;70012;0.000;0.000;2023-07-08T11:26:19;100662.34;;;34.98;21.77
80648;BME280;70012;0.000;0.000;2023-07-08T11:28:49;100663.59;;;34.90;21.77
80648;BME280;70012;0.000;0.000;2023-07-08T11:31:18;100665.63;;;34.93;22.31
80648;BME280;70012;0.000;0.000;2023-07-08T11:33:45;100664.00;;;34.85;22.56
80648;BME280;70012;0.000;0.000;2023-07-08T11:36:13;100674.13;;;35.00;22.21
80648;BME280;70012;0.000;0.000;2023-07-08T11:38:48;100672.84;;;35.08;22.61
80648;BME280;70012;0.000;0.000;2023-07-08T11:41:18;100662.63;;;35.22;23.19
80648;BME280;70012;0.000;0.000;2023-07-08T11:43:49;100663.72;;;35.42;22.93
80648;BME280;70012;0.000;0.000;2023-07-08T11:46:26;100649.75;;;35.59;22.13
80648;BME280;70012;0.000;0.000;2023-07-08T11:49:09;100654.56;;;35.69;22.41
80648;BME280;70012;0.000;0.000;2023-07-08T11:51:41;100655.56;;;35.45;21.22
80648;BME280;70012;0.000;0.000;2023-07-08T11:54:20;100656.41;;;35.41;21.27
80648;BME280;70012;0.000;0.000;2023-07-08T11:59:26;100649.31;;;35.64;21.72
80648;BME280;70012;0.000;0.000;2023-07-08T12:04:33;100662.91;;;35.38;20.07
80648;BME280;70012;0.000;0.000;2023-07-08T12:07:06;100648.41;;;35.18;19.83
80648;BME280;70012;0.000;0.000;2023-07-08T12:09:37;100642.94;;;35.46;21.21
80648;BME280;70012;0.000;0.000;2023-07-08T12:12:23;100641.59;;;35.65;21.24
80648;BME280;70012;0.000;0.000;2023-07-08T12:14:54;100647.88;;;35.90;20.06
80648;BME280;70012;0.000;0.000;2023-07-08T12:17:26;100641.19;;;36.08;20.85
80648;BME280;70012;0.000;0.000;2023-07-08T12:19:55;100640.69;;;36.17;20.25
80648;BME280;70012;0.000;0.000;2023-07-08T12:22:24;100641.16;;;36.12;21.06
80648;BME280;70012;0.000;0.000;2023-07-08T12:24:51;100634.59;;;36.18;19.89
80648;BME280;70012;0.000;0.000;2023-07-08T12:27:17;100630.34;;;36.30;21.55
80648;BME280;70012;0.000;0.000;2023-07-08T12:29:45;100631.09;;;36.42;20.98
80648;BME280;70012;0.000;0.000;2023-07-08T12:32:12;100637.06;;;36.51;20.34
80648;BME280;70012;0.000;0.000;2023-07-08T12:34:40;100636.66;;;36.52;19.66
80648;BME280;70012;0.000;0.000;2023-07-08T12:37:11;100633.97;;;36.69;21.01
80648;BME280;70012;0.000;0.000;2023-07-08T12:39:38;100630.28;;;36.72;20.15
80648;BME280;70012;0.000;0.000;2023-07-08T12:42:10;100629.75;;;36.81;20.62
80648;BME280;70012;0.000;0.000;2023-07-08T12:44:38;100621.59;;;36.83;21.34
80648;BME280;70012;0.000;0.000;2023-07-08T12:47:07;100619.81;;;36.96;20.84
80648;BME280;70012;0.000;0.000;2023-07-08T12:49:35;100619.38;;;36.98;21.04
80648;BME280;70012;0.000;0.000;2023-07-08T12:52:02;100628.22;;;36.73;19.04
80648;BME280;70012;0.000;0.000;2023-07-08T12:54:28;100616.25;;;36.54;19.94
80648;BME280;70012;0.000;0.000;2023-07-08T12:56:56;100610.88;;;36.25;19.26
80648;BME280;70012;0.000;0.000;2023-07-08T12:59:24;100616.50;;;36.32;20.06
80648;BME280;70012;0.000;0.000;2023-07-08T13:01:52;100606.66;;;36.41;21.13
80648;BME280;70012;0.000;0.000;2023-07-08T13:04:19;100605.34;;;36.49;21.06
80648;BME280;70012;0.000;0.000;2023-07-08T13:06:47;100610.78;;;36.32;19.78
80648;BME280;70012;0.000;0.000;2023-07-08T13:09:28;100613.44;;;36.16;19.69
80648;BME280;70012;0.000;0.000;2023-07-08T13:11:57;100600.66;;;35.93;19.45
80648;BME280;70012;0.000;0.000;2023-07-08T13:14:25;100607.25;;;35.83;20.06
80648;BME280;70012;0.000;0.000;2023-07-08T13:16:52;100599.06;;;35.85;19.87
80648;BME280;70012;0.000;0.000;2023-07-08T13:19:19;100597.41;;;35.91;20.75
80648;BME280;70012;0.000;0.000;2023-07-08T13:21:50;100598.06;;;36.10;20.98
80648;BME280;70012;0.000;0.000;2023-07-08T13:24:17;100606.75;;;35.95;19.59
80648;BME280;70012;0.000;0.000;2023-07-08T13:26:46;100610.03;;;35.86;19.83
80648;BME280;70012;0.000;0.000;2023-07-08T13:29:16;100607.28;;;35.79;21.16
80648;BME280;70012;0.000;0.000;2023-07-08T13:31:52;100611.28;;;35.89;21.01
80648;BME280;70012;0.000;0.000;2023-07-08T13:34:23;100601.50;;;35.90;19.95
80648;BME280;70012;0.000;0.000;2023-07-08T13:36:51;100594.28;;;35.78;20.87
80648;BME280;70012;0.000;0.000;2023-07-08T13:39:31;100600.00;;;35.74;20.08
80648;BME280;70012;0.000;0.000;2023-07-08T13:42:00;100601.63;;;35.76;20.47
80648;BME280;70012;0.000;0.000;2023-07-08T13:44:27;100599.22;;;35.70;21.14
80648;BME280;70012;0.000;0.000;2023-07-08T13:46:57;100593.50;;;35.74;22.39
80648;BME280;70012;0.000;0.000;2023-07-08T13:54:43;100593.34;;;35.92;22.05
80648;BME280;70012;0.000;0.000;2023-07-08T13:57:13;100599.91;;;35.89;21.03
80648;BME280;70012;0.000;0.000;2023-07-08T13:59:42;100603.16;;;35.84;19.94
80648;BME280;70012;0.000;0.000;2023-07-08T14:02:22;100601.56;;;35.83;22.29
80648;BME280;70012;0.000;0.000;2023-07-08T14:04:50;100604.00;;;35.81;22.73
80648;BME280;70012;0.000;0.000;2023-07-08T14:07:21;100601.50;;;35.90;23.11